Time;durP1;ratioP1;P1;durP2;ratioP2;P2;SDS_P1;SDS_P2;PMS_P1;PMS_P2;Temp;Humidity;BMP_temperature;BMP_pressure;BME280_temperature;BME280_humidity;BME280_pressure;Samples;Min_cycle;Max_cycle;Signal;HPM_P1;HPM_P2
2022/09/17 00:01:57;;;;;;;3.65;2.67;;;17.50;77.10;;;;;;4925219;29;20035;-64
2022/09/17 00:04:22;;;;;;;3.10;2.80;;;17.60;77.20;;;;;;4934656;29;20786;-64
2022/09/17 00:06:48;;;;;;;3.10;2.70;;;17.60;77.10;;;;;;4935083;29;20024;-64
2022/09/17 00:09:14;;;;;;;2.70;2.50;;;17.60;77.20;;;;;;4934359;29;20047;-64
2022/09/17 00:11:41;;;;;;;4.05;2.95;;;17.60;77.20;;;;;;4932445;29;20032;-64
2022/09/17 00:14:11;;;;;;;3.85;3.05;;;17.60;77.20;;;;;;5094168;23;20044;-87
2022/09/17 00:16:45;;;;;;;4.15;3.70;;;17.60;76.90;;;;;;4914991;29;20487;-88
2022/09/17 00:19:21;;;;;;;4.38;3.50;;;17.60;77.00;;;;;;4900701;29;20024;-88
2022/09/17 00:21:47;;;;;;;4.35;3.67;;;17.60;76.90;;;;;;4923359;29;20063;-88
2022/09/17 00:24:14;;;;;;;5.05;4.00;;;17.60;76.90;;;;;;4911682;29;20487;-88
2022/09/17 00:26:41;;;;;;;3.88;3.42;;;17.60;77.00;;;;;;4898048;29;20024;-88
2022/09/17 00:29:07;;;;;;;4.00;3.42;;;17.60;77.10;;;;;;4909578;29;20112;-86
2022/09/17 00:31:34;;;;;;;4.18;3.40;;;17.60;77.30;;;;;;4901414;29;20051;-89
2022/09/17 00:34:00;;;;;;;3.97;3.45;;;17.60;77.40;;;;;;4907891;29;20055;-87
2022/09/17 00:36:26;;;;;;;4.20;3.60;;;17.60;77.60;;;;;;4913976;29;20451;-88
2022/09/17 00:38:58;;;;;;;3.80;3.40;;;17.50;77.50;;;;;;4917365;29;20035;-89
2022/09/17 00:41:27;;;;;;;3.70;3.40;;;17.60;77.70;;;;;;4925888;29;20027;-88
2022/09/17 00:44:19;;;;;;;3.58;3.28;;;17.50;77.70;;;;;;4921853;29;20475;-89
2022/09/17 00:46:45;;;;;;;4.25;3.70;;;17.50;77.70;;;;;;4909687;29;20028;-88
2022/09/17 00:49:13;;;;;;;4.38;3.80;;;17.50;77.80;;;;;;4898429;29;20259;-88
2022/09/17 00:51:46;;;;;;;4.03;3.63;;;17.50;77.80;;;;;;4917124;29;20048;-88
2022/09/17 00:54:12;;;;;;;4.25;3.55;;;17.50;77.80;;;;;;4900243;29;20033;-86
2022/09/17 00:56:40;;;;;;;4.10;3.67;;;17.50;78.00;;;;;;4897860;29;20028;-87
2022/09/17 00:59:07;;;;;;;4.43;3.40;;;17.40;78.00;;;;;;4904350;29;20120;-88
2022/09/17 01:01:33;;;;;;;5.20;3.63;;;17.40;78.10;;;;;;4899050;29;20032;-89
2022/09/17 01:03:59;;;;;;;3.90;3.50;;;17.40;78.20;;;;;;4903764;29;20020;-88
2022/09/17 01:06:42;;;;;;;3.72;3.25;;;17.40;78.30;;;;;;4912824;29;20036;-88
2022/09/17 01:09:30;;;;;;;4.22;3.70;;;17.30;79.00;;;;;;4901149;29;20032;-87
2022/09/17 01:12:02;;;;;;;4.50;3.60;;;17.30;78.50;;;;;;4898874;29;20047;-87
2022/09/17 01:14:42;;;;;;;4.78;3.90;;;17.20;78.70;;;;;;4914020;29;20725;-88
2022/09/17 01:17:42;;;;;;;4.47;3.60;;;17.20;78.40;;;;;;4901008;29;20384;-84
2022/09/17 01:20:31;;;;;;;4.28;3.35;;;17.20;78.40;;;;;;4901828;29;20016;-88
2022/09/17 01:23:35;;;;;;;4.90;3.83;;;17.20;78.30;;;;;;4913977;29;20107;-87
2022/09/17 01:26:38;;;;;;;6.22;4.70;;;17.20;78.40;;;;;;4897708;29;20487;-88
2022/09/17 01:29:33;;;;;;;8.77;6.82;;;17.20;78.30;;;;;;4903250;29;20036;-88
2022/09/17 01:32:19;;;;;;;9.95;7.68;;;17.20;78.30;;;;;;4908859;29;20083;-88
2022/09/17 01:34:55;;;;;;;8.70;6.75;;;17.10;78.50;;;;;;4884925;29;20112;-87
2022/09/17 01:37:31;;;;;;;7.60;6.28;;;17.10;78.60;;;;;;4885313;29;20032;-87
2022/09/17 01:40:06;;;;;;;5.43;4.63;;;17.10;78.70;;;;;;4918639;29;20020;-88
2022/09/17 01:42:46;;;;;;;5.20;4.47;;;17.10;79.40;;;;;;4906057;29;20484;-87
2022/09/17 01:45:21;;;;;;;4.85;3.78;;;17.10;78.80;;;;;;4906638;29;20043;-87
2022/09/17 01:48:14;;;;;;;5.15;3.90;;;17.10;78.80;;;;;;4912271;29;20118;-88
2022/09/17 01:50:57;;;;;;;4.35;3.65;;;17.10;78.80;;;;;;4899767;29;20444;-86
2022/09/17 01:53:29;;;;;;;6.07;3.97;;;17.10;78.80;;;;;;4901115;29;20035;-89
2022/09/17 01:55:57;;;;;;;4.72;4.20;;;17.10;78.80;;;;;;4906444;29;20028;-88
2022/09/17 01:58:31;;;;;;;4.05;3.65;;;17.20;78.90;;;;;;4904896;29;20389;-88
2022/09/17 02:01:02;;;;;;;4.22;3.28;;;17.20;78.90;;;;;;4915056;29;20020;-88
2022/09/17 02:03:45;;;;;;;3.40;3.05;;;17.20;78.90;;;;;;4908853;29;20112;-87
2022/09/17 02:06:18;;;;;;;4.40;3.10;;;17.20;79.00;;;;;;4904644;29;20076;-88
2022/09/17 02:08:55;;;;;;;3.78;3.40;;;17.20;78.90;;;;;;4915751;29;20028;-86
2022/09/17 02:11:21;;;;;;;4.57;3.63;;;17.30;79.00;;;;;;4906952;29;20043;-87
2022/09/17 02:13:59;;;;;;;4.82;3.78;;;17.30;78.90;;;;;;4898123;29;20127;-88
2022/09/17 02:16:29;;;;;;;3.53;3.10;;;17.30;78.80;;;;;;4893990;29;20052;-87
2022/09/17 02:18:57;;;;;;;5.18;3.60;;;17.30;78.90;;;;;;4896163;29;20051;-88
2022/09/17 02:21:37;;;;;;;4.00;3.28;;;17.30;78.80;;;;;;4887338;29;20021;-88
2022/09/17 02:24:16;;;;;;;3.85;3.45;;;17.40;78.80;;;;;;4895859;29;20436;-88
2022/09/17 02:26:49;;;;;;;3.95;3.53;;;17.40;78.70;;;;;;4890942;29;20032;-88
2022/09/17 02:29:25;;;;;;;3.97;3.58;;;17.40;78.70;;;;;;4894755;29;20032;-87
2022/09/17 02:31:51;;;;;;;5.05;3.67;;;17.40;78.60;;;;;;4896236;29;20039;-87
2022/09/17 02:34:18;;;;;;;3.80;3.13;;;17.40;78.70;;;;;;4896750;29;20028;-88
2022/09/17 02:36:44;;;;;;;3.97;3.55;;;17.40;78.80;;;;;;4895586;29;20420;-88
2022/09/17 02:39:09;;;;;;;3.30;3.00;;;17.40;78.90;;;;;;4895607;29;20033;-87
2022/09/17 02:41:50;;;;;;;3.80;3.15;;;17.40;78.90;;;;;;4903007;29;20063;-89
2022/09/17 02:44:42;;;;;;;3.17;2.88;;;17.40;78.90;;;;;;4891301;29;20036;-88
2022/09/17 02:47:16;;;;;;;3.95;3.53;;;17.40;79.10;;;;;;4890665;29;20499;-87
2022/09/17 02:49:51;;;;;;;3.88;3.20;;;17.40;79.10;;;;;;4890982;29;20115;-89
2022/09/17 02:52:35;;;;;;;4.18;3.33;;;17.40;79.10;;;;;;4896044;29;20056;-88
2022/09/17 02:55:04;;;;;;;4.57;3.33;;;17.40;79.20;;;;;;4889064;29;20180;-88
2022/09/17 02:57:43;;;;;;;3.63;3.33;;;17.50;79.30;;;;;;4895362;29;20029;-89
2022/09/17 03:00:13;;;;;;;6.13;3.28;;;17.50;79.20;;;;;;4898937;29;20104;-88
2022/09/17 03:02:50;;;;;;;3.78;3.47;;;17.50;79.10;;;;;;4894065;29;20504;-89
2022/09/17 03:05:18;;;;;;;3.78;3.45;;;17.50;79.20;;;;;;4896476;29;20436;-87
2022/09/17 03:07:44;;;;;;;4.45;3.50;;;17.40;79.10;;;;;;4895559;29;20035;-89
2022/09/17 03:10:10;;;;;;;5.05;3.97;;;17.50;79.30;;;;;;4893327;29;20028;-88
2022/09/17 03:12:37;;;;;;;6.03;4.03;;;17.40;79.20;;;;;;4895001;29;20028;-88
2022/09/17 03:15:03;;;;;;;4.80;3.90;;;17.40;79.10;;;;;;4894860;29;20040;-87
2022/09/17 03:17:29;;;;;;;4.65;3.60;;;17.40;78.80;;;;;;4902161;29;20028;-88
2022/09/17 03:19:55;;;;;;;3.90;3.50;;;17.40;78.60;;;;;;4894119;29;20491;-89
2022/09/17 03:22:20;;;;;;;4.70;3.78;;;17.40;78.80;;;;;;4895089;29;20495;-88
2022/09/17 03:24:46;;;;;;;5.00;3.35;;;17.40;78.80;;;;;;4897083;29;20099;-89
2022/09/17 03:27:12;;;;;;;4.07;3.67;;;17.40;79.00;;;;;;4896044;29;20032;-87
2022/09/17 03:29:37;;;;;;;3.88;3.42;;;17.40;79.00;;;;;;4894932;29;20024;-89
2022/09/17 03:32:04;;;;;;;4.25;3.67;;;17.40;79.00;;;;;;4896577;29;20168;-88
2022/09/17 03:34:30;;;;;;;4.22;3.67;;;17.50;79.10;;;;;;4894726;29;20037;-87
2022/09/17 03:36:56;;;;;;;4.57;3.35;;;17.50;79.20;;;;;;4895387;29;20025;-87
2022/09/17 03:39:21;;;;;;;4.60;3.83;;;17.50;79.20;;;;;;4898513;29;20089;-87
2022/09/17 03:41:47;;;;;;;3.92;3.53;;;17.50;79.20;;;;;;4901378;29;20387;-88
2022/09/17 03:44:14;;;;;;;4.50;4.10;;;17.50;79.30;;;;;;4897059;29;20069;-88
2022/09/17 03:46:40;;;;;;;4.65;3.45;;;17.50;79.30;;;;;;4901433;29;20029;-87
2022/09/17 03:49:07;;;;;;;4.78;3.88;;;17.50;79.30;;;;;;4904218;29;20035;-88
2022/09/17 03:51:33;;;;;;;4.55;3.65;;;17.50;79.50;;;;;;4898544;29;20728;-87
2022/09/17 03:53:59;;;;;;;4.38;3.58;;;17.50;79.50;;;;;;4896687;29;20032;-88
2022/09/17 03:56:25;;;;;;;4.85;3.92;;;17.50;79.50;;;;;;4894237;29;20092;-88
2022/09/17 03:58:55;;;;;;;5.38;3.85;;;17.50;79.60;;;;;;4907122;29;20479;-88
2022/09/17 04:01:21;;;;;;;5.18;4.05;;;17.60;79.70;;;;;;4906401;29;20032;-88
2022/09/17 04:03:46;;;;;;;5.18;4.20;;;17.50;79.70;;;;;;4898910;29;20024;-90
2022/09/17 04:06:15;;;;;;;4.60;3.90;;;17.50;79.80;;;;;;4895303;29;20732;-89
2022/09/17 04:08:42;;;;;;;4.68;3.97;;;17.50;79.90;;;;;;4901471;29;20036;-87
2022/09/17 04:11:08;;;;;;;5.70;4.10;;;17.50;80.00;;;;;;4894371;29;20392;-88
2022/09/17 04:13:35;;;;;;;5.20;4.30;;;17.60;80.40;;;;;;4897120;29;20131;-90
2022/09/17 04:16:01;;;;;;;4.40;3.72;;;17.60;80.40;;;;;;4897985;29;20028;-89
2022/09/17 04:18:27;;;;;;;5.03;3.83;;;17.50;80.30;;;;;;4897239;29;20032;-88
2022/09/17 04:20:52;;;;;;;5.88;4.47;;;17.50;80.40;;;;;;4897610;29;20032;-89
2022/09/17 04:23:18;;;;;;;5.15;4.15;;;17.60;80.70;;;;;;4901473;29;20510;-89
2022/09/17 04:25:44;;;;;;;5.00;4.38;;;17.60;80.70;;;;;;4902904;29;20506;-88
2022/09/17 04:28:10;;;;;;;5.43;4.45;;;17.60;80.70;;;;;;4898725;29;20107;-88
2022/09/17 04:30:36;;;;;;;5.82;4.70;;;17.60;80.70;;;;;;4900384;29;20424;-89
2022/09/17 04:33:02;;;;;;;5.78;4.82;;;17.60;81.00;;;;;;4896758;29;20418;-89
2022/09/17 04:35:28;;;;;;;6.03;4.97;;;17.60;80.60;;;;;;4891713;29;20119;-88
2022/09/17 04:37:55;;;;;;;6.85;4.80;;;17.60;80.40;;;;;;4897623;29;20092;-89
2022/09/17 04:40:22;;;;;;;6.68;5.55;;;17.60;80.30;;;;;;4901367;29;20032;-89
2022/09/17 04:42:51;;;;;;;7.57;5.38;;;17.60;80.10;;;;;;4897724;29;20029;-89
2022/09/17 04:45:16;;;;;;;6.55;5.00;;;17.60;80.20;;;;;;4900189;29;20024;-81
2022/09/17 04:47:42;;;;;;;6.95;5.25;;;17.60;80.20;;;;;;4902408;29;20450;-80
2022/09/17 04:50:08;;;;;;;6.10;5.10;;;17.60;80.20;;;;;;4899256;29;20041;-81
2022/09/17 04:52:33;;;;;;;6.40;5.38;;;17.60;80.20;;;;;;4898043;29;20307;-81
2022/09/17 04:54:59;;;;;;;6.25;5.32;;;17.60;80.30;;;;;;4895494;29;20124;-81
2022/09/17 04:57:25;;;;;;;6.47;5.32;;;17.60;80.20;;;;;;4896740;29;20035;-80
2022/09/17 04:59:51;;;;;;;7.28;5.28;;;17.60;80.20;;;;;;4897470;29;20039;-81
2022/09/17 05:02:17;;;;;;;7.15;5.25;;;17.60;80.20;;;;;;4898186;29;20328;-81
2022/09/17 05:04:42;;;;;;;6.38;5.50;;;17.50;80.10;;;;;;4896746;29;20459;-81
2022/09/17 05:07:08;;;;;;;5.82;4.90;;;17.50;80.20;;;;;;4897638;29;20070;-81
2022/09/17 05:09:34;;;;;;;5.60;4.95;;;17.50;80.20;;;;;;4897133;29;20036;-81
2022/09/17 05:11:59;;;;;;;6.25;4.75;;;17.50;80.40;;;;;;4896852;29;20036;-81
2022/09/17 05:14:25;;;;;;;5.47;4.63;;;17.50;80.60;;;;;;4905421;29;20534;-81
2022/09/17 05:16:51;;;;;;;5.90;4.78;;;17.50;80.80;;;;;;4912299;29;20064;-81
2022/09/17 05:19:16;;;;;;;5.72;4.85;;;17.50;80.90;;;;;;4901904;29;20028;-81
2022/09/17 05:21:42;;;;;;;5.55;4.65;;;17.60;81.10;;;;;;4921196;29;20107;-81
2022/09/17 05:24:08;;;;;;;5.57;4.90;;;17.60;81.30;;;;;;4919315;29;20079;-81
2022/09/17 05:26:39;;;;;;;7.22;5.20;;;17.60;81.40;;;;;;4912913;29;20068;-80
2022/09/17 05:29:05;;;;;;;5.72;5.13;;;17.60;81.50;;;;;;4902744;29;20032;-81
2022/09/17 05:31:31;;;;;;;5.22;4.50;;;17.60;81.60;;;;;;4917779;29;20111;-81
2022/09/17 05:33:58;;;;;;;5.90;4.72;;;17.70;81.80;;;;;;4917210;29;20032;-81
2022/09/17 05:36:24;;;;;;;5.80;4.85;;;17.70;81.80;;;;;;4903310;29;20039;-81
2022/09/17 05:38:49;;;;;;;5.68;4.75;;;17.80;82.00;;;;;;4901778;29;20035;-80
2022/09/17 05:41:15;;;;;;;6.70;4.78;;;17.80;82.00;;;;;;4917282;29;20024;-81
2022/09/17 05:43:42;;;;;;;6.47;5.03;;;17.80;82.10;;;;;;4910162;29;20039;-81
2022/09/17 05:46:08;;;;;;;6.90;5.80;;;17.90;82.80;;;;;;4905924;29;20023;-81
2022/09/17 05:48:34;;;;;;;8.20;5.80;;;17.90;82.20;;;;;;4907944;29;20058;-80
2022/09/17 05:50:59;;;;;;;7.57;5.47;;;18.00;82.80;;;;;;4916603;29;20107;-82
2022/09/17 05:53:25;;;;;;;6.85;5.45;;;18.00;82.10;;;;;;4916930;29;20028;-81
2022/09/17 05:55:56;;;;;;;7.22;5.93;;;18.00;82.20;;;;;;4901853;29;20503;-81
2022/09/17 05:58:21;;;;;;;8.05;5.95;;;18.00;82.10;;;;;;4916119;29;20064;-81
2022/09/17 06:00:47;;;;;;;6.63;5.63;;;18.10;82.20;;;;;;4920472;29;20063;-80
2022/09/17 06:03:16;;;;;;;7.53;5.88;;;18.10;82.30;;;;;;4912594;29;20373;-81
2022/09/17 06:05:43;;;;;;;7.13;5.90;;;18.10;82.30;;;;;;4913342;29;20125;-81
2022/09/17 06:08:09;;;;;;;7.10;5.97;;;18.20;82.40;;;;;;4915249;29;20544;-80
2022/09/17 06:10:38;;;;;;;7.53;6.05;;;18.20;82.20;;;;;;4916766;29;20103;-80
2022/09/17 06:13:04;;;;;;;7.80;5.60;;;18.20;82.30;;;;;;4917545;29;20032;-81
2022/09/17 06:15:30;;;;;;;6.63;5.20;;;18.20;82.20;;;;;;4905298;29;20423;-81
2022/09/17 06:17:56;;;;;;;7.85;5.90;;;18.20;82.40;;;;;;4911433;29;20032;-81
2022/09/17 06:20:21;;;;;;;6.38;5.78;;;18.20;82.50;;;;;;4912228;29;20057;-81
2022/09/17 06:22:47;;;;;;;7.00;5.95;;;18.20;82.50;;;;;;4905295;29;20040;-81
2022/09/17 06:25:13;;;;;;;6.97;5.85;;;18.20;83.10;;;;;;4899548;29;20123;-81
2022/09/17 06:27:39;;;;;;;6.13;5.22;;;18.20;82.50;;;;;;4907468;29;20185;-81
2022/09/17 06:30:05;;;;;;;6.53;5.47;;;18.20;82.60;;;;;;4895701;29;20032;-81
2022/09/17 06:32:32;;;;;;;6.47;5.68;;;18.20;82.60;;;;;;4915342;29;20931;-80
2022/09/17 06:34:58;;;;;;;7.22;5.80;;;18.30;82.70;;;;;;4906738;29;20056;-81
2022/09/17 06:37:28;;;;;;;7.72;5.70;;;18.30;82.50;;;;;;4911342;29;20407;-81
2022/09/17 06:39:54;;;;;;;7.30;6.07;;;18.30;82.20;;;;;;4909316;29;20035;-81
2022/09/17 06:42:19;;;;;;;7.30;6.20;;;18.30;81.80;;;;;;4901140;29;20271;-81
2022/09/17 06:44:45;;;;;;;7.47;6.10;;;18.30;81.50;;;;;;4907169;29;20533;-80
2022/09/17 06:47:11;;;;;;;7.53;5.80;;;18.30;81.20;;;;;;4910520;29;20036;-81
2022/09/17 06:49:36;;;;;;;7.00;5.70;;;18.30;81.10;;;;;;4915505;29;20519;-81
2022/09/17 06:52:03;;;;;;;7.72;5.85;;;18.30;81.20;;;;;;4914941;29;20063;-81
2022/09/17 06:54:28;;;;;;;5.57;4.85;;;18.30;81.20;;;;;;4925015;29;20025;-80
2022/09/17 06:56:54;;;;;;;6.85;5.15;;;18.40;81.20;;;;;;4906777;29;20082;-81
2022/09/17 06:59:20;;;;;;;5.80;5.05;;;18.40;81.10;;;;;;4906069;29;20032;-81
2022/09/17 07:01:46;;;;;;;6.93;5.80;;;18.40;80.90;;;;;;4911911;29;20027;-80
2022/09/17 07:04:12;;;;;;;6.57;4.78;;;18.40;80.70;;;;;;4920187;29;20033;-81
2022/09/17 07:06:38;;;;;;;5.40;4.53;;;18.40;80.60;;;;;;4914021;29;20035;-81
2022/09/17 07:09:06;;;;;;;5.40;4.35;;;18.40;80.60;;;;;;4906467;29;20475;-82
2022/09/17 07:11:32;;;;;;;6.47;4.70;;;18.40;80.80;;;;;;4918925;29;20027;-80
2022/09/17 07:13:58;;;;;;;5.07;4.35;;;18.40;81.00;;;;;;4921172;29;20523;-81
2022/09/17 07:16:25;;;;;;;6.47;4.95;;;18.40;81.20;;;;;;4907947;29;20036;-81
2022/09/17 07:18:51;;;;;;;5.63;4.65;;;18.40;81.40;;;;;;4918706;29;20491;-81
2022/09/17 07:21:17;;;;;;;7.10;5.03;;;18.40;81.40;;;;;;4901789;29;20391;-81
2022/09/17 07:23:45;;;;;;;5.80;5.20;;;18.40;81.50;;;;;;4911279;29;20040;-80
2022/09/17 07:26:15;;;;;;;6.97;5.20;;;18.40;81.80;;;;;;4917730;29;20097;-81
2022/09/17 07:28:42;;;;;;;6.40;5.00;;;18.40;82.00;;;;;;4909150;29;20488;-80
2022/09/17 07:31:08;;;;;;;6.63;5.07;;;18.40;82.00;;;;;;4920487;29;20056;-81
2022/09/17 07:33:36;;;;;;;6.00;4.90;;;18.40;82.30;;;;;;4905890;29;20036;-81
2022/09/17 07:36:07;;;;;;;6.80;5.30;;;18.40;82.20;;;;;;4920246;29;20101;-81
2022/09/17 07:38:34;;;;;;;7.38;5.50;;;18.40;82.00;;;;;;4903683;29;20031;-81
2022/09/17 07:41:11;;;;;;;6.82;5.72;;;18.50;81.90;;;;;;4905281;29;20039;-81
2022/09/17 07:43:37;;;;;;;7.13;5.20;;;18.40;81.70;;;;;;4917229;29;20035;-81
2022/09/17 07:46:04;;;;;;;6.60;5.20;;;18.40;81.80;;;;;;4902632;29;20028;-82
2022/09/17 07:48:32;;;;;;;7.15;5.00;;;18.50;82.00;;;;;;4900653;29;20504;-80
2022/09/17 07:50:58;;;;;;;6.15;5.05;;;18.50;82.00;;;;;;4905751;29;20024;-81
2022/09/17 07:53:24;;;;;;;6.75;5.55;;;18.50;82.10;;;;;;4903000;29;20024;-81
2022/09/17 07:55:54;;;;;;;7.05;4.85;;;18.50;82.20;;;;;;4921889;29;20024;-81
2022/09/17 07:58:21;;;;;;;8.07;5.93;;;18.50;82.20;;;;;;4909468;29;20543;-81
2022/09/17 08:00:47;;;;;;;6.47;4.88;;;18.50;82.10;;;;;;4913758;29;20020;-80
2022/09/17 08:03:13;;;;;;;7.00;5.15;;;18.50;81.80;;;;;;4918907;29;20016;-81
2022/09/17 08:05:39;;;;;;;5.45;4.68;;;18.50;81.70;;;;;;4907889;29;20077;-81
2022/09/17 08:08:04;;;;;;;5.78;4.90;;;18.40;81.60;;;;;;4902360;29;20043;-81
2022/09/17 08:10:30;;;;;;;5.38;4.70;;;18.40;81.80;;;;;;4922195;29;20031;-81
2022/09/17 08:12:57;;;;;;;5.68;5.03;;;18.40;81.90;;;;;;4924485;29;20064;-82
2022/09/17 08:15:23;;;;;;;5.95;4.95;;;18.40;82.00;;;;;;4905203;29;20071;-81
2022/09/17 08:17:50;;;;;;;7.00;5.50;;;18.40;82.00;;;;;;4909897;29;20289;-81
2022/09/17 08:20:17;;;;;;;7.03;5.20;;;18.40;81.80;;;;;;4904217;29;20031;-81
2022/09/17 08:22:43;;;;;;;6.25;5.20;;;18.40;81.60;;;;;;4907762;29;20035;-81
2022/09/17 08:25:09;;;;;;;5.50;4.88;;;18.40;81.50;;;;;;4917630;29;20499;-81
2022/09/17 08:27:37;;;;;;;6.45;4.88;;;18.40;81.40;;;;;;4900755;29;20036;-81
2022/09/17 08:30:04;;;;;;;5.35;4.80;;;18.40;81.30;;;;;;4913957;29;20417;-81
2022/09/17 08:32:30;;;;;;;5.32;4.47;;;18.40;81.10;;;;;;4900433;29;20479;-81
2022/09/17 08:34:56;;;;;;;5.90;4.70;;;18.40;81.00;;;;;;4917044;29;20028;-81
2022/09/17 08:37:21;;;;;;;6.28;4.47;;;18.30;80.90;;;;;;4903535;29;20037;-81
2022/09/17 08:39:47;;;;;;;5.50;4.38;;;18.40;80.90;;;;;;4899468;29;20036;-81
2022/09/17 08:42:30;;;;;;;6.30;4.93;;;18.40;80.90;;;;;;4904596;29;20020;-81
2022/09/17 08:44:57;;;;;;;6.43;4.95;;;18.40;80.80;;;;;;4899074;29;20468;-81
2022/09/17 08:47:42;;;;;;;5.15;4.60;;;18.30;80.70;;;;;;4905245;29;20024;-81
2022/09/17 08:50:32;;;;;;;6.00;5.10;;;18.40;80.40;;;;;;4918813;29;20024;-81
2022/09/17 08:53:25;;;;;;;5.47;4.78;;;18.30;80.10;;;;;;4913968;29;20491;-81
2022/09/17 08:56:08;;;;;;;5.63;4.53;;;18.20;80.30;;;;;;4912933;29;20032;-81
2022/09/17 08:58:39;;;;;;;5.70;4.95;;;18.20;80.50;;;;;;4906238;29;20083;-80
2022/09/17 09:01:24;;;;;;;6.22;4.75;;;18.20;80.60;;;;;;4903309;29;20028;-81
2022/09/17 09:04:02;;;;;;;5.63;4.97;;;18.20;80.80;;;;;;4908810;29;20044;-81
2022/09/17 09:06:59;;;;;;;6.07;5.03;;;18.10;80.90;;;;;;4914992;29;20095;-81
2022/09/17 09:09:32;;;;;;;5.35;4.68;;;18.10;80.90;;;;;;4917353;29;20134;-81
2022/09/17 09:12:12;;;;;;;6.50;5.20;;;18.10;81.10;;;;;;4905138;29;20056;-82
2022/09/17 09:14:55;;;;;;;6.45;5.50;;;18.10;81.30;;;;;;4891990;29;20048;-81
2022/09/17 09:17:24;;;;;;;5.90;5.30;;;18.10;82.00;;;;;;4893725;29;20033;-83
2022/09/17 09:19:52;;;;;;;6.85;4.80;;;18.10;81.70;;;;;;4900952;29;20035;-84
2022/09/17 09:22:43;;;;;;;5.45;4.45;;;18.00;81.70;;;;;;4896478;29;20029;-83
2022/09/17 09:25:34;;;;;;;5.10;4.30;;;17.90;81.70;;;;;;4894415;29;20028;-83
2022/09/17 09:28:07;;;;;;;;;;;17.90;81.40;;;;;;4889863;29;20032;-84
2022/09/17 09:31:06;;;;;;;4.10;3.63;;;17.80;81.20;;;;;;4898509;29;19911;-83
2022/09/17 09:33:36;;;;;;;4.70;3.90;;;17.70;81.40;;;;;;4863837;29;20040;-83
2022/09/17 09:36:04;;;;;;;5.17;3.80;;;17.70;82.10;;;;;;4892569;29;20674;-83
2022/09/17 09:38:49;;;;;;;3.92;3.30;;;17.60;81.50;;;;;;4889290;29;20434;-83
2022/09/17 09:41:24;;;;;;;4.20;3.70;;;17.50;81.70;;;;;;4892478;29;20039;-84
2022/09/17 09:44:01;;;;;;;5.10;4.35;;;17.50;81.90;;;;;;4887954;29;20033;-83
2022/09/17 09:46:37;;;;;;;5.20;4.30;;;17.40;82.10;;;;;;4896718;29;20130;-83
2022/09/17 09:49:33;;;;;;;5.13;4.63;;;17.40;82.50;;;;;;4895325;29;20024;-82
2022/09/17 09:52:17;;;;;;;5.07;3.90;;;17.30;82.60;;;;;;4895495;29;20040;-85
2022/09/17 09:55:02;;;;;;;4.57;4.05;;;17.20;83.00;;;;;;4897472;29;20037;-88
2022/09/17 10:00:27;;;;;;;5.22;3.65;;;17.10;83.40;;;;;;4932860;29;20062;-89
2022/09/17 10:02:58;;;;;;;4.25;3.50;;;17.10;83.20;;;;;;4929471;29;20530;-89
2022/09/17 10:05:24;;;;;;;5.35;4.10;;;17.00;83.40;;;;;;4926193;29;20441;-89
2022/09/17 10:07:50;;;;;;;5.38;4.70;;;17.00;83.60;;;;;;4926446;29;20028;-91
2022/09/17 10:10:15;;;;;;;6.45;4.40;;;17.00;83.90;;;;;;4930761;29;20501;-90
2022/09/17 10:12:41;;;;;;;6.18;4.55;;;16.90;84.10;;;;;;4921974;29;20020;-89
2022/09/17 10:15:27;;;;;;;7.15;5.28;;;16.90;84.40;;;;;;4922995;29;20035;-89
2022/09/17 10:18:16;;;;;;;5.45;4.63;;;16.90;84.50;;;;;;4927087;29;20439;-90
2022/09/17 10:21:02;;;;;;;4.93;4.32;;;16.90;84.70;;;;;;4928354;29;20051;-89
2022/09/17 10:23:32;;;;;;;5.38;4.85;;;16.90;84.90;;;;;;4928458;29;20028;-89
2022/09/17 10:25:58;;;;;;;5.72;4.88;;;16.90;85.30;;;;;;4929632;29;20114;-89
2022/09/17 10:28:50;;;;;;;6.60;5.15;;;16.80;85.50;;;;;;4923011;29;20051;-89
2022/09/17 10:31:15;;;;;;;5.95;5.13;;;16.80;85.70;;;;;;4928409;29;20118;-89
2022/09/17 10:33:57;;;;;;;6.72;4.97;;;16.80;86.00;;;;;;4928272;29;20416;-90
2022/09/17 10:36:41;;;;;;;6.18;5.10;;;16.80;86.10;;;;;;4929545;29;20032;-90
2022/09/17 10:39:32;;;;;;;6.63;5.53;;;16.70;86.10;;;;;;4933055;29;20028;-89
2022/09/17 10:42:10;;;;;;;5.88;4.72;;;16.80;86.50;;;;;;4932137;29;20035;-90
2022/09/17 10:44:36;;;;;;;5.45;4.50;;;16.70;86.50;;;;;;4922625;29;20028;-89
2022/09/17 10:47:13;;;;;;;5.80;4.80;;;16.70;86.80;;;;;;4931621;29;20027;-90
2022/09/17 10:49:49;;;;;;;6.28;4.82;;;16.80;86.70;;;;;;4930808;29;20043;-92
2022/09/17 10:52:31;;;;;;;5.97;4.72;;;16.70;86.80;;;;;;4932868;29;21010;-89
2022/09/17 10:55:18;;;;;;;5.30;4.30;;;16.80;86.90;;;;;;4934512;29;20163;-90
2022/09/17 10:57:54;;;;;;;6.20;4.97;;;16.70;86.90;;;;;;4936235;29;20032;-91
2022/09/17 11:00:22;;;;;;;5.90;5.15;;;16.70;86.90;;;;;;4963120;23;20353;-84
2022/09/17 11:03:06;;;;;;;5.85;4.63;;;16.70;87.20;;;;;;4935606;29;20099;-86
2022/09/17 11:05:56;;;;;;;5.00;4.45;;;16.70;87.30;;;;;;4951592;28;20023;-85
2022/09/17 11:08:46;;;;;;;6.53;5.70;;;16.70;87.70;;;;;;4950721;28;20388;-84
2022/09/17 11:11:35;;;;;;;5.82;5.22;;;16.60;87.80;;;;;;4930311;28;20280;-82
2022/09/17 11:14:14;;;;;;;6.53;5.07;;;16.60;87.90;;;;;;4942000;28;20070;-82
2022/09/17 11:17:12;;;;;;;6.60;4.90;;;16.60;88.30;;;;;;4944854;28;20031;-82
2022/09/17 11:20:02;;;;;;;5.75;5.00;;;16.60;88.40;;;;;;4943322;28;20027;-82
2022/09/17 11:22:57;;;;;;;5.22;4.50;;;16.60;88.80;;;;;;4941974;28;20030;-82
2022/09/17 11:25:38;;;;;;;6.32;4.57;;;16.60;88.80;;;;;;4929004;29;20031;-82
2022/09/17 11:28:42;;;;;;;6.03;5.13;;;16.60;89.00;;;;;;4932714;29;20019;-82
2022/09/17 11:31:48;;;;;;;5.30;4.80;;;16.60;88.90;;;;;;4946568;28;20490;-82
2022/09/17 11:34:36;;;;;;;4.70;4.20;;;16.60;89.00;;;;;;4945210;28;20027;-82
2022/09/17 11:37:10;;;;;;;5.88;5.28;;;16.60;89.30;;;;;;4929355;29;20020;-83
2022/09/17 11:39:48;;;;;;;4.85;4.30;;;16.60;89.40;;;;;;4951156;28;20028;-84
2022/09/17 11:42:20;;;;;;;5.88;4.75;;;16.60;89.40;;;;;;4939362;29;20032;-82
2022/09/17 11:44:59;;;;;;;4.70;4.25;;;16.60;89.60;;;;;;4934575;28;20086;-81
2022/09/17 11:47:30;;;;;;;5.35;4.47;;;16.50;89.70;;;;;;4931429;29;20094;-82
2022/09/17 11:50:21;;;;;;;4.85;4.18;;;16.50;90.20;;;;;;4951788;29;20031;-83
2022/09/17 11:53:09;;;;;;;;;;;16.50;89.80;;;;;;4939149;29;20150;-83
2022/09/17 11:55:48;;;;;;;4.38;3.80;;;16.50;89.80;;;;;;4944547;28;19911;-81
2022/09/17 11:58:26;;;;;;;5.03;3.80;;;16.50;89.90;;;;;;4935226;29;20042;-82
2022/09/17 12:01:03;;;;;;;4.45;3.85;;;16.50;90.10;;;;;;4921834;29;20078;-83
2022/09/17 12:04:06;;;;;;;5.35;4.30;;;16.50;90.20;;;;;;4926473;29;20028;-83
2022/09/17 12:06:46;;;;;;;4.93;3.78;;;16.40;90.20;;;;;;4935009;28;20066;-84
2022/09/17 12:09:19;;;;;;;5.15;4.05;;;16.40;90.30;;;;;;4945702;29;20031;-83
2022/09/17 12:12:02;;;;;;;6.18;5.00;;;16.40;90.40;;;;;;4933678;29;20032;-82
2022/09/17 12:14:46;;;;;;;5.53;4.40;;;16.40;90.40;;;;;;4935631;28;20038;-82
2022/09/17 12:17:22;;;;;;;4.35;3.85;;;16.40;90.60;;;;;;4934079;29;20031;-83
2022/09/17 12:20:14;;;;;;;4.95;4.18;;;16.40;90.50;;;;;;4938086;29;20023;-83
2022/09/17 12:22:43;;;;;;;4.95;4.32;;;16.40;90.60;;;;;;4929030;29;20050;-82
2022/09/17 12:25:12;;;;;;;5.70;4.55;;;16.40;90.60;;;;;;4933890;29;20471;-83
2022/09/17 12:27:53;;;;;;;5.88;4.32;;;16.40;90.70;;;;;;4933844;29;20037;-83
2022/09/17 12:30:27;;;;;;;5.22;4.38;;;16.40;90.80;;;;;;4937488;29;20043;-82
2022/09/17 12:33:08;;;;;;;5.53;4.55;;;16.40;90.80;;;;;;4936062;29;20034;-83
2022/09/17 12:35:56;;;;;;;4.90;4.15;;;16.40;90.80;;;;;;4938765;29;20039;-83
2022/09/17 12:38:30;;;;;;;5.22;4.72;;;16.30;90.90;;;;;;4936265;29;20082;-83
2022/09/17 12:41:23;;;;;;;4.95;3.72;;;16.30;90.90;;;;;;4932440;29;20495;-83
2022/09/17 12:43:51;;;;;;;4.40;3.72;;;16.30;91.00;;;;;;4950973;28;20046;-83
2022/09/17 12:46:38;;;;;;;4.43;3.97;;;16.30;91.10;;;;;;4925734;29;20031;-83
2022/09/17 12:49:22;;;;;;;4.80;4.13;;;16.30;91.10;;;;;;4929542;29;20024;-82
2022/09/17 12:52:03;;;;;;;4.60;3.78;;;16.30;91.10;;;;;;4940496;29;20039;-82
2022/09/17 12:55:29;;;;;;;3.92;3.35;;;16.30;91.20;;;;;;4934774;29;20039;-82
2022/09/17 12:58:02;;;;;;;4.88;4.03;;;16.30;91.10;;;;;;4875221;29;20529;-83
2022/09/17 13:00:30;;;;;;;4.18;3.78;;;16.30;91.20;;;;;;4926708;29;20037;-83
2022/09/17 13:03:32;;;;;;;4.05;3.50;;;16.30;91.20;;;;;;4944913;28;20031;-84
2022/09/17 13:06:16;;;;;;;3.65;3.35;;;16.30;91.00;;;;;;4887418;28;20054;-83
2022/09/17 13:08:53;;;;;;;4.70;3.92;;;16.30;91.30;;;;;;4933493;29;20137;-82
2022/09/17 13:11:28;;;;;;;3.95;3.47;;;16.40;91.30;;;;;;4945726;29;20035;-82
2022/09/17 13:14:18;;;;;;;4.10;3.60;;;16.40;91.20;;;;;;4932960;29;20507;-82
2022/09/17 13:16:47;;;;;;;3.85;3.25;;;16.40;91.30;;;;;;4935430;29;20062;-83
2022/09/17 13:19:24;;;;;;;3.83;3.33;;;16.40;91.40;;;;;;4931273;29;20055;-83
2022/09/17 13:22:00;;;;;;;4.57;3.83;;;16.40;91.30;;;;;;4930434;29;20028;-82